Cys Investments Inc (CYS) Latest Bloomsberg Price


Mffais Ranking #1511 Overall / #21 Industry
Industry: Mortgage Finance

Number of Companies: 137 (Ranking #1267 Overall/#12 Industry)
Inflow: $ 20,651 (K) (Ranking #1733 Overall/#22 Industry)
Outflow: $ -22,610 (K)
Mffais Flow: $ -1,959 (K) (Ranking #1511 Overall/#21 Industry)


Receive a FREE weekly executive review of stocks moving into the top 10, taking the top industy spot or moving up within their industry. Sent directly to your Inbox every Saturday. Sign up today and get last week's review immediately sent to you.

We value and respect your privacy. Please read our Terms and Conditions which states our firm commitment to your privacy. Your email address will not be shared with a third party, nor will it be sold or used for purposes other than subscription for the weekly review.

Owner CPOR Shares Action Qty Chg Invested (K) Total Current Value (K)
Clough Capital Partners L P 2016-09-30 1,009,050 New Holding 1,009,050 $ 8,859 $ 8,859
Global X Management Co Llc 2016-09-30 1,958,050 Added More 221,845 $ 1,947 $ 17,191
Secor Capital Advisors Lp 2016-09-30 125,573 New Holding 125,573 $ 1,102 $ 1,102
Hillsdale Investment Management Inc 2016-09-30 86,120 Added More 85,900 $ 754 $ 756
Spot Trading L L C 2016-09-30 81,100 New Holding 81,100 $ 712 $ 712
Jane Street Group Llc 2016-09-30 94,215 Added More 77,919 $ 684 $ 827
Confluence Investment Management Llc 2016-09-30 774,326 Added More 75,000 $ 658 $ 6,798
Comerica Bank 2016-09-30 68,469 New Holding 68,469 $ 601 $ 601
1st Global Advisors Inc 2016-09-30 50,118 New Holding 50,118 $ 440 $ 440
Edge Asset Management Inc 2016-09-30 684,153 Added More 49,888 $ 438 $ 6,006
Northern Trust Corp 2016-09-30 1,784,298 Added More 36,907 $ 324 $ 15,666
Nisa Investment Advisors Llc 2016-09-30 35,000 New Holding 35,000 $ 307 $ 307
Her Majesty The Queen In Right Of The Province Of Alberta As 2016-09-30 115,200 Added More 34,400 $ 302 $ 1,011
Capital Fund Management S A 2016-09-30 30,112 New Holding 30,112 $ 264 $ 264
Cipher Capital Lp 2016-09-30 330,889 Added More 29,405 $ 258 $ 2,905
Doheny Asset Management Ca 2016-09-30 73,250 Added More 28,800 $ 252 $ 643
First Foundation Advisors 2016-09-30 25,000 New Holding 25,000 $ 219 $ 219
Dynamic Technology Lab Private Ltd 2016-09-30 24,953 New Holding 24,953 $ 219 $ 219
Cetera Advisor Networks Llc 2016-09-30 23,851 New Holding 23,851 $ 209 $ 209
Amp Capital Investors Ltd 2016-09-30 23,700 New Holding 23,700 $ 208 $ 208
Hunter Associates Investment Management Llc 2016-09-30 18,000 New Holding 18,000 $ 158 $ 158
Parametric Portfolio Associates Llc 2016-09-30 568,896 Added More 16,918 $ 148 $ 4,994
Cutler Group Lp 2016-09-30 36,700 Added More 13,010 $ 114 $ 322
Ares Management Llc 2016-09-30 13,000 New Holding 13,000 $ 114 $ 114
Ellington Management Group Llc 2016-09-30 12,000 New Holding 12,000 $ 105 $ 105
Stevens Capital Management Lp 2016-09-30 11,415 New Holding 11,415 $ 100 $ 100
Tfs Capital Llc 2016-09-30 11,021 New Holding 11,021 $ 96 $ 96
Sg Americas Securities Llc 2016-09-30 117,442 Added More 11,001 $ 96 $ 1,031
Commonwealth Equity Services Inc 2016-09-30 10,760 New Holding 10,760 $ 94 $ 94
Algert Global Llc 2016-09-30 10,589 New Holding 10,589 $ 92 $ 92
Verition Fund Management Llc 2016-09-30 10,567 New Holding 10,567 $ 92 $ 92
Quantbot Technologies Lp 2016-09-30 27,713 Added More 10,317 $ 90 $ 243
Legal General Group Plc 2016-09-30 59,253 Added More 6,367 $ 55 $ 520
Advisor Group Inc 2016-09-30 76,124 Added More 5,543 $ 48 $ 668
Vsr Financial Services Inc 2016-06-30 16,385 Added More 5,300 $ 44 $ 137
Central Trust Co 2016-09-30 5,666 Added More 5,000 $ 43 $ 49
Guggenheim Capital Llc 2016-09-30 324,405 Added More 4,632 $ 40 $ 2,848
Creative Planning 2016-09-30 21,573 Added More 4,607 $ 40 $ 189
Teachers Advisors Inc 2016-09-30 248,068 Added More 4,174 $ 36 $ 2,178
Clarivest Asset Management Llc 2016-09-30 97,651 Added More 3,600 $ 31 $ 857
Pnc Financial Services Group Inc 2016-09-30 63,923 Added More 3,502 $ 30 $ 561
Msi Financial Services Inc 2016-09-30 4,070 Added More 3,170 $ 27 $ 35
Pacad Investment Ltd 2016-09-30 11,074 Added More 2,900 $ 25 $ 97
California State Teachers Retirement System 2016-09-30 320,750 Added More 2,900 $ 25 $ 2,816
Mackenzie Financial Corp 2016-09-30 69,564 Added More 2,781 $ 24 $ 610
Van Eck Associates Corp 2016-09-30 531,136 Added More 2,343 $ 20 $ 4,663
Baird Financial Group Inc 2016-09-30 30,189 Added More 1,500 $ 13 $ 265
Profund Advisors Llc 2016-09-30 14,548 Added More 1,464 $ 12 $ 127
Integrated Wealth Management 2016-09-30 1,450 New Holding 1,450 $ 12 $ 12
Commonwealth Bank Of Australia 2016-09-30 1,182 New Holding 1,182 $ 10 $ 10
Ifp Advisors Inc 2016-09-30 3,207 Added More 766 $ 6 $ 28
Zurcher Kantonalbank Zurich Cantonalbank 2016-09-30 3,351 Added More 661 $ 5 $ 29
Next Financial Group Inc 2016-09-30 950 Added More 600 $ 5 $ 8
Penserra Capital Management Llc 2016-09-30 2,184 Added More 543 $ 4 $ 19
Wedbush Securities Inc 2016-09-30 13,084 Added More 500 $ 4 $ 114
Blackrock Inc 2016-09-30 44,626 Added More 436 $ 3 $ 391
Private Advisor Group Llc 2016-09-30 14,451 Added More 357 $ 3 $ 126
Arrowpoint Asset Management Llc 2016-09-30 337 New Holding 337 $ 2 $ 2
American International Group Inc 2016-09-30 87,394 Added More 134 $ 1 $ 767
Raymond James Financial Services Advisors Inc 2016-09-30 15,556 Added More 1 $ 0 $ 136
Investors Capital Advisory Services 2016-06-30 29,599 No Change 0 $ 0 $ 247
Plante Moran Financial Advisors Llc 2016-09-30 1,000 No Change 0 $ 0 $ 8
Parkside Financial Bank Trust 2016-09-30 6,003 No Change 0 $ 0 $ 52
Seizert Capital Partners Llc 2016-09-30 23,215 No Change 0 $ 0 $ 203
Sei Investments Co 2016-09-30 130 No Change 0 $ 0 $ 1
Camelot Portfolios Llc 2016-09-30 8,550 No Change 0 $ 0 $ 75
New York State Common Retirement Fund 2016-09-30 149,900 No Change 0 $ 0 $ 1,316
Orrstown Financial Services Inc 2016-09-30 1,000 No Change 0 $ 0 $ 8
Violich Capital Management Inc 2016-09-30 17,900 No Change 0 $ 0 $ 157
Dubuque Bank Trust Co 2016-09-30 1,300 No Change 0 $ 0 $ 11
Smithfield Trust Co 2016-09-30 2,000 No Change 0 $ 0 $ 17
American Financial Group Inc 2016-09-30 3,329,000 No Change 0 $ 0 $ 29,228
Proficio Capital Partners Llc 2016-09-30 281 No Change 0 $ 0 $ 2
Nationwide Fund Advisors 2016-09-30 101,901 No Change 0 $ 0 $ 894
Jacobi Capital Management Llc 2016-09-30 12,300 No Change 0 $ 0 $ 107
Central Bank Trust Co 2016-09-30 300 No Change 0 $ 0 $ 2
Klcm Advisors Inc 2016-09-30 10,900 No Change 0 $ 0 $ 95
Lmm Llc 2016-09-30 230,000 No Change 0 $ 0 $ 2,019
Chicago Equity Partners Llc 2016-09-30 178,360 No Change 0 $ 0 $ 1,566
State Of New Jersey Common Pension Fund D 2016-09-30 134,000 No Change 0 $ 0 $ 1,176
Qs Investors Llc 2016-09-30 3,846 No Change 0 $ 0 $ 33
Nuveen Asset Management Llc 2016-09-30 10,228 No Change 0 $ 0 $ 89
Sonora Investment Management Llc 2016-09-30 50,000 No Change 0 $ 0 $ 439
Synovus Financial Corp 2016-09-30 6,768 No Change 0 $ 0 $ 59
Hudock Capital Group Llc 2016-09-30 200 No Change 0 $ 0 $ 1
Us Bancorp De 2016-09-30 1,355 No Change 0 $ 0 $ 11
West Family Investments Inc 2016-09-30 2,139,532 No Change 0 $ 0 $ 18,785
Blb B Advisors Llc 2016-09-30 30,905 Sold Some -100 $ -0 $ 271
C M Bidwell Associates Ltd 2016-09-30 22,205 Sold Some -135 $ -1 $ 194
Sterling Capital Management Llc 2016-09-30 90,399 Sold Some -178 $ -1 $ 793
Howe Rusling Inc 2016-09-30 0 Sold All -248 $ -2 $ 0
Raymond James Associates 2016-09-30 39,196 Sold Some -252 $ -2 $ 344
Cambridge Investment Research Advisors Inc 2016-09-30 68,837 Sold Some -548 $ -4 $ 604
Simplex Trading Llc 2016-09-30 0 Sold All -775 $ -6 $ 0
Hanson Mcclain Inc 2016-06-30 0 Sold All -1,000 $ -8 $ 0
Princeton Alpha Management Lp 2016-09-30 37,849 Sold Some -1,522 $ -13 $ 332
Maple Capital Management Inc 2016-09-30 60,600 Sold Some -1,600 $ -14 $ 532
Stratos Wealth Partners Ltd 2016-09-30 19,853 Sold Some -1,725 $ -15 $ 174
Strs Ohio 2016-09-30 48,900 Sold Some -1,800 $ -15 $ 429
Aperio Group Llc 2016-09-30 137,951 Sold Some -1,849 $ -16 $ 1,211
Capital Investment Advisors Llc 2016-09-30 13,755 Sold Some -2,205 $ -19 $ 120
Group One Trading L P 2016-09-30 0 Sold All -2,641 $ -23 $ 0
Bronfman E L Rothschild L P 2016-09-30 0 Sold All -2,655 $ -23 $ 0
Blackrock Investment Management Llc 2016-09-30 635,180 Sold Some -2,912 $ -25 $ 5,576
Sigma Planning Corp 2016-09-30 21,878 Sold Some -3,065 $ -26 $ 192
Acrospire Investment Management Llc 2016-09-30 6,386 Sold Some -3,100 $ -27 $ 56
Greenwich Investment Management Inc 2016-09-30 103,625 Sold Some -3,300 $ -28 $ 909
Invictus Rg 2016-09-30 18,273 Sold Some -3,899 $ -34 $ 160
Rhumbline Advisers 2016-09-30 188,127 Sold Some -3,965 $ -34 $ 1,651
Teacher Retirement System Of Texas 2016-09-30 16,306 Sold Some -5,070 $ -44 $ 143
Stifel Financial Corp 2016-09-30 91,714 Sold Some -6,548 $ -57 $ 805
Ladenburg Thalmann Financial Services Inc 2016-09-30 62,911 Sold Some -7,100 $ -62 $ 552
Squarepoint Ops Llc 2016-09-30 10,000 Sold Some -8,314 $ -72 $ 87
Proshare Advisors Llc 2016-09-30 48,804 Sold Some -8,843 $ -77 $ 428
Strategic Investment Management Llc 2016-09-30 0 Sold All -11,803 $ -103 $ 0
Swiss National Bank 2016-09-30 242,700 Sold Some -12,300 $ -107 $ 2,130
Parametrica Management Ltd 2016-09-30 0 Sold All -13,143 $ -115 $ 0
Two Sigma Securities Llc 2016-09-30 0 Sold All -13,334 $ -117 $ 0
Barings Llc 2016-09-30 0 Sold All -14,900 $ -130 $ 0
Virtu Financial Llc 2016-09-30 0 Sold All -15,680 $ -137 $ 0
Tower Research Capital Llc Trc 2016-09-30 2,700 Sold Some -16,818 $ -147 $ 23
Walleye Trading Llc 2016-09-30 0 Sold All -18,052 $ -158 $ 0
Kcg Holdings Inc 2016-09-30 46,315 Sold Some -20,409 $ -179 $ 406
Quantitative Systematic Strategies Llc 2016-09-30 0 Sold All -22,651 $ -198 $ 0
Cubist Systematic Strategies Llc 2016-09-30 58,596 Sold Some -24,783 $ -217 $ 514
Kames Capital Plc 2016-09-30 678,540 Sold Some -29,231 $ -256 $ 5,957
Putnam Investments Llc 2016-09-30 66,354 Sold Some -48,265 $ -423 $ 582
Menta Capital Llc 2016-09-30 367,525 Sold Some -51,207 $ -449 $ 3,226
Raiff Partners Inc 2016-09-30 0 Sold All -60,000 $ -526 $ 0
Westchester Capital Management Llc 2016-09-30 0 Sold All -60,696 $ -532 $ 0
Pdt Partners Llc 2016-09-30 0 Sold All -64,800 $ -568 $ 0
Diam Co Ltd 2016-09-30 153,920 Sold Some -121,226 $ -1,064 $ 1,351
Yorktown Management Research Co Inc 2016-09-30 0 Sold All -200,000 $ -1,756 $ 0
Peak6 Investments L P 2016-09-30 23,700 Sold Some -249,800 $ -2,193 $ 208
Td Asset Management Inc 2016-09-30 0 Sold All -430,000 $ -3,775 $ 0
Advisors Asset Management Inc 2016-09-30 3,345,149 Sold Some -484,333 $ -4,252 $ 29,370
Emerald Acquisition Ltd 2016-09-30 1,764,657 Sold Some -516,539 $ -4,535 $ 15,493